Time;durP1;ratioP1;P1;durP2;ratioP2;P2;SDS_P1;SDS_P2;PMS_P1;PMS_P2;Temp;Humidity;BMP_temperature;BMP_pressure;BME280_temperature;BME280_humidity;BME280_pressure;Samples;Min_cycle;Max_cycle;Signal;HPM_P1;HPM_P2
2022/10/14 17:22:45;;;;;;;68.28;36.17;;;;;;;13.55;78.19;99100.26;1794387;79;22292;-48
2022/10/14 17:25:11;;;;;;;79.37;37.15;;;;;;;13.48;78.06;99095.04;1782000;80;21050;-43
2022/10/14 17:27:37;;;;;;;60.85;36.38;;;;;;;13.44;78.10;99095.73;1771176;80;20944;-42
2022/10/14 17:30:05;;;;;;;75.83;40.38;;;;;;;13.41;78.01;99095.48;1792878;80;20978;-40
2022/10/14 17:32:30;;;;;;;62.03;37.33;;;;;;;13.37;78.24;99101.94;1793145;80;21149;-42
2022/10/14 17:34:56;;;;;;;76.57;38.80;;;;;;;13.33;78.46;99103.08;1793063;80;21468;-40
2022/10/14 17:37:22;;;;;;;67.60;38.78;;;;;;;13.31;78.56;99101.02;1792958;80;21467;-49
2022/10/14 17:39:48;;;;;;;68.17;38.60;;;;;;;13.29;78.87;99098.94;1793007;80;20955;-45
2022/10/14 17:42:13;;;;;;;75.72;39.00;;;;;;;13.28;78.91;99103.88;1792878;80;21022;-44
2022/10/14 17:44:39;;;;;;;73.17;39.10;;;;;;;13.24;79.08;99094.45;1792959;80;20998;-41
2022/10/14 17:47:05;;;;;;;77.60;39.48;;;;;;;13.23;79.48;99095.42;1793031;80;21002;-50
2022/10/14 17:49:31;;;;;;;69.00;38.73;;;;;;;13.24;79.56;99094.45;1793036;80;20975;-40
2022/10/14 17:52:01;;;;;;;70.60;38.13;;;;;;;13.26;79.47;99100.47;1792996;80;21030;-43
2022/10/14 17:54:29;;;;;;;67.78;35.43;;;;;;;13.23;80.15;99097.58;1793080;80;20987;-40
2022/10/14 17:56:55;;;;;;;75.75;38.67;;;;;;;13.23;79.93;99096.73;1792960;80;21372;-44
2022/10/14 17:59:22;;;;;;;84.60;41.48;;;;;;;13.22;80.04;99095.03;1793057;80;21773;-41
2022/10/14 18:01:48;;;;;;;70.20;37.80;;;;;;;13.22;79.74;99095.90;1793097;80;21421;-41
2022/10/14 18:04:14;;;;;;;62.08;37.15;;;;;;;13.22;80.21;99095.03;1792935;80;21038;-44
2022/10/14 18:06:43;;;;;;;71.17;39.60;;;;;;;13.20;80.34;99089.02;1792990;80;21029;-38
2022/10/14 18:09:10;;;;;;;62.60;37.98;;;;;;;13.19;80.52;99089.50;1792930;80;21034;-44
2022/10/14 18:11:40;;;;;;;73.90;40.65;;;;;;;13.17;80.44;99081.30;1793082;80;21175;-49
2022/10/14 18:14:07;;;;;;;77.75;40.90;;;;;;;13.17;80.22;99086.58;1793013;80;21448;-46
2022/10/14 18:16:35;;;;;;;;;;;;;;;13.18;80.19;99083.84;1795771;80;20983;-40
2022/10/14 18:19:08;;;;;;;78.75;40.52;;;;;;;13.16;80.98;99083.11;1792976;80;20112;-45
2022/10/14 18:21:36;;;;;;;88.52;44.75;;;;;;;13.19;80.80;99082.06;1787295;80;21476;-42
2022/10/14 18:24:04;;;;;;;71.10;41.95;;;;;;;13.19;80.64;99084.70;1779402;80;21026;-39
2022/10/14 18:26:30;;;;;;;75.70;42.03;;;;;;;13.18;81.05;99079.05;1779489;80;21039;-44
2022/10/14 18:28:59;;;;;;;84.07;44.27;;;;;;;13.19;81.03;99076.78;1779441;81;20968;-41
2022/10/14 18:31:28;;;;;;;82.15;43.73;;;;;;;13.20;80.92;99077.14;1779498;80;20995;-44
2022/10/14 18:33:56;;;;;;;75.92;45.05;;;;;;;13.20;80.94;99075.81;1778977;80;21018;-41
2022/10/14 18:36:25;;;;;;;83.05;45.95;;;;;;;13.21;81.17;99079.67;1778802;80;21003;-42
2022/10/14 18:38:57;;;;;;;78.02;44.13;;;;;;;13.21;81.46;99075.72;1778905;80;21035;-42
2022/10/14 18:41:24;;;;;;;79.80;46.28;;;;;;;13.22;81.28;99072.59;1778806;81;20979;-43
2022/10/14 18:43:51;;;;;;;76.33;44.05;;;;;;;13.22;81.23;99078.73;1778994;81;20990;-41
2022/10/14 18:46:20;;;;;;;81.45;43.60;;;;;;;13.20;81.42;99074.50;1778822;81;20984;-48
2022/10/14 18:48:52;;;;;;;84.13;44.53;;;;;;;13.19;81.43;99074.14;1778802;80;20999;-41
2022/10/14 18:51:24;;;;;;;89.83;45.92;;;;;;;13.18;81.45;99072.44;1779066;80;21003;-41
2022/10/14 18:53:54;;;;;;;81.82;44.05;;;;;;;13.17;81.46;99073.38;1778841;81;21039;-44
2022/10/14 18:56:23;;;;;;;87.82;45.25;;;;;;;13.16;81.18;99074.34;1756948;81;20992;-48
2022/10/14 18:58:57;;;;;;;86.12;43.33;;;;;;;13.15;81.24;99077.92;1778778;81;20983;-41
2022/10/14 19:01:24;;;;;;;84.03;42.60;;;;;;;13.11;81.21;99074.66;1777410;80;21509;-44
2022/10/14 19:03:51;;;;;;;86.57;45.23;;;;;;;13.10;81.13;99078.72;1777633;81;21093;-46
2022/10/14 19:06:19;;;;;;;81.00;43.92;;;;;;;13.08;81.05;99076.20;1778864;81;21038;-41
2022/10/14 19:08:46;;;;;;;77.42;44.35;;;;;;;13.04;81.50;99076.89;1778855;80;21410;-42
2022/10/14 19:11:18;;;;;;;76.05;42.93;;;;;;;13.01;81.56;99078.41;1779037;80;20967;-42
2022/10/14 19:13:48;;;;;;;79.00;44.98;;;;;;;13.00;81.54;99074.56;1778876;80;20991;-45
2022/10/14 19:16:21;;;;;;;81.15;43.23;;;;;;;12.99;81.46;99072.88;1778587;80;20996;-47
2022/10/14 19:18:53;;;;;;;75.25;44.10;;;;;;;12.96;81.58;99074.41;1778747;81;21014;-45
2022/10/14 19:21:21;;;;;;;79.25;44.33;;;;;;;12.93;81.83;99076.77;1777464;80;20968;-41
2022/10/14 19:23:49;;;;;;;80.42;42.03;;;;;;;12.89;81.99;99079.25;1771762;81;21483;-45
2022/10/14 19:26:18;;;;;;;81.17;42.43;;;;;;;12.86;81.86;99079.45;1771806;81;20992;-42
2022/10/14 19:28:44;;;;;;;76.25;43.13;;;;;;;12.82;82.05;99086.76;1771629;81;20991;-43
2022/10/14 19:31:16;;;;;;;75.55;42.48;;;;;;;12.78;82.65;99083.09;1771649;80;21035;-42
2022/10/14 19:33:44;;;;;;;81.57;43.48;;;;;;;12.76;82.11;99082.36;1771610;81;20996;-38
2022/10/14 19:36:16;;;;;;;79.72;41.70;;;;;;;12.73;82.69;99083.39;1771788;81;20991;-41
2022/10/14 19:38:51;;;;;;;77.12;43.00;;;;;;;12.71;82.41;99081.82;1771632;81;21444;-49
2022/10/14 19:41:17;;;;;;;81.22;40.65;;;;;;;12.68;82.72;99081.56;1771204;81;21054;-46
2022/10/14 19:43:43;;;;;;;81.23;41.40;;;;;;;12.63;82.93;99080.54;1771890;81;20991;-45
2022/10/14 19:46:11;;;;;;;73.87;41.80;;;;;;;12.60;82.78;99073.31;1771662;81;21052;-43
2022/10/14 19:48:37;;;;;;;68.80;42.38;;;;;;;12.58;82.63;99074.72;1771696;80;20972;-47
2022/10/14 19:51:08;;;;;;;78.55;41.65;;;;;;;12.55;82.55;99073.63;1771593;81;20992;-39
2022/10/14 19:53:33;;;;;;;69.53;40.58;;;;;;;12.55;82.76;99071.45;1771455;81;20984;-42
2022/10/14 19:56:06;;;;;;;82.08;42.00;;;;;;;12.52;83.29;99072.51;1771613;81;21000;-42
2022/10/14 19:58:32;;;;;;;83.52;42.85;;;;;;;12.48;82.83;99065.27;1771551;81;21512;-46
2022/10/14 20:01:00;;;;;;;74.75;43.08;;;;;;;12.47;83.12;99070.16;1771560;81;21019;-41
2022/10/14 20:03:25;;;;;;;79.12;43.63;;;;;;;12.45;82.98;99068.59;1770586;81;21458;-42
2022/10/14 20:06:01;;;;;;;77.45;42.70;;;;;;;12.43;83.07;99068.69;1771615;81;20988;-42
2022/10/14 20:08:28;;;;;;;91.22;47.40;;;;;;;12.40;83.04;99064.09;1771600;81;21513;-44
2022/10/14 20:10:54;;;;;;;74.90;44.70;;;;;;;12.37;83.11;99062.52;1771900;81;20983;-46
2022/10/14 20:13:20;;;;;;;84.20;43.10;;;;;;;12.37;83.11;99059.01;1771612;81;20968;-46
2022/10/14 20:15:54;;;;;;;82.72;41.60;;;;;;;12.35;82.91;99058.27;1771605;81;21021;-43
2022/10/14 20:18:21;;;;;;;77.67;41.85;;;;;;;12.34;82.80;99055.28;1771593;81;20987;-44
2022/10/14 20:20:46;;;;;;;67.97;39.15;;;;;;;12.31;83.46;99055.47;1771497;81;20988;-44
2022/10/14 20:23:12;;;;;;;68.37;38.70;;;;;;;12.29;82.78;99060.36;1777731;80;21019;-43
2022/10/14 20:25:40;;;;;;;73.42;39.30;;;;;;;12.25;83.16;99052.29;1778838;81;20987;-47
2022/10/14 20:28:06;;;;;;;79.15;39.20;;;;;;;12.23;83.34;99051.55;1778924;81;21563;-42
2022/10/14 20:30:32;;;;;;;77.12;41.45;;;;;;;12.21;83.35;99054.77;1779257;80;20967;-41
2022/10/14 20:32:58;;;;;;;66.92;38.53;;;;;;;12.20;83.01;99057.02;1778692;81;20983;-44
2022/10/14 20:35:24;;;;;;;72.35;38.33;;;;;;;12.18;83.29;99063.34;1778682;81;21042;-45
2022/10/14 20:37:49;;;;;;;77.37;38.17;;;;;;;12.15;83.40;99061.77;1778727;81;21026;-41
2022/10/14 20:40:16;;;;;;;71.00;38.55;;;;;;;12.16;83.11;99063.44;1756762;81;21026;-43
2022/10/14 20:42:41;;;;;;;70.57;38.30;;;;;;;12.14;83.59;99064.02;1778813;81;20999;-42
2022/10/14 20:45:08;;;;;;;70.95;39.20;;;;;;;12.11;84.33;99062.89;1778673;80;20999;-41
2022/10/14 20:47:34;;;;;;;77.00;41.53;;;;;;;12.11;83.90;99058.94;1778874;80;20995;-46
2022/10/14 20:49:59;;;;;;;70.78;39.65;;;;;;;12.09;84.33;99056.87;1778707;80;21054;-39
2022/10/14 20:52:25;;;;;;;72.20;38.98;;;;;;;12.08;83.93;99063.11;1778739;81;21042;-43
2022/10/14 20:54:51;;;;;;;70.45;39.38;;;;;;;12.07;83.85;99059.61;1778746;80;20992;-41
2022/10/14 20:57:17;;;;;;;74.35;37.63;;;;;;;12.04;84.36;99058.96;1778701;80;21510;-47
2022/10/14 20:59:42;;;;;;;66.05;37.78;;;;;;;12.03;84.27;99059.92;1778504;80;21018;-41
2022/10/14 21:02:16;;;;;;;67.75;38.23;;;;;;;12.02;84.42;99060.86;1777610;81;21551;-44
2022/10/14 21:04:48;;;;;;;68.15;37.28;;;;;;;12.01;84.76;99060.50;1778785;81;20971;-46
2022/10/14 21:07:13;;;;;;;72.45;38.20;;;;;;;11.97;84.56;99058.53;1777153;80;21040;-38
2022/10/14 21:09:40;;;;;;;70.90;37.60;;;;;;;11.96;84.64;99056.00;1778712;81;21012;-37
2022/10/14 21:12:05;;;;;;;67.55;37.05;;;;;;;11.95;84.84;99059.11;1778743;81;21488;-42
2022/10/14 21:14:32;;;;;;;68.65;39.18;;;;;;;11.92;85.05;99054.03;1778652;81;20960;-42
2022/10/14 21:16:58;;;;;;;80.10;40.38;;;;;;;11.90;85.01;99047.53;1778594;81;21444;-43
2022/10/14 21:19:24;;;;;;;76.82;41.48;;;;;;;11.89;85.21;99045.80;1778742;80;21035;-43
2022/10/14 21:21:49;;;;;;;73.52;41.42;;;;;;;11.85;85.33;99041.69;1778614;80;21039;-42
2022/10/14 21:24:18;;;;;;;73.22;39.90;;;;;;;11.81;85.83;99045.47;1778700;80;21011;-42
2022/10/14 21:26:47;;;;;;;73.47;40.50;;;;;;;11.78;85.98;99044.34;1778716;81;20991;-42
2022/10/14 21:29:13;;;;;;;73.30;39.00;;;;;;;11.75;85.89;99034.02;1778710;81;21010;-45
2022/10/14 21:31:39;;;;;;;74.45;39.75;;;;;;;11.73;86.20;99043.78;1778795;80;21011;-45
2022/10/14 21:34:08;;;;;;;75.10;38.78;;;;;;;11.72;86.36;99041.63;1779019;80;20983;-43
2022/10/14 21:36:34;;;;;;;63.02;37.55;;;;;;;11.71;86.43;99037.32;1778724;81;20984;-47
2022/10/14 21:39:08;;;;;;;70.60;38.05;;;;;;;11.70;86.09;99037.41;1778892;81;21453;-43
2022/10/14 21:41:35;;;;;;;73.02;38.13;;;;;;;11.69;85.99;99040.50;1778707;81;20964;-44
2022/10/14 21:44:01;;;;;;;75.30;37.85;;;;;;;11.67;86.21;99033.65;1778805;81;20979;-39
2022/10/14 21:46:27;;;;;;;68.22;35.95;;;;;;;11.62;86.98;99036.56;1778693;80;20987;-42
2022/10/14 21:48:55;;;;;;;70.20;39.55;;;;;;;11.62;86.63;99034.41;1778743;80;20976;-42
2022/10/14 21:51:24;;;;;;;72.20;39.58;;;;;;;11.60;86.57;99030.55;1778699;81;21023;-40
2022/10/14 21:53:50;;;;;;;73.65;39.38;;;;;;;11.60;86.58;99034.98;1778826;81;21018;-41
2022/10/14 21:56:18;;;;;;;74.10;38.75;;;;;;;11.55;86.97;99030.47;1778642;81;20983;-43
2022/10/14 21:58:44;;;;;;;70.10;38.15;;;;;;;11.52;87.30;99034.16;1778666;81;20991;-43
2022/10/14 22:01:22;;;;;;;68.65;39.08;;;;;;;11.50;87.03;99031.62;1778644;80;21457;-40
2022/10/14 22:03:57;;;;;;;67.87;37.45;;;;;;;11.49;87.28;99027.28;1778680;81;21023;-41
2022/10/14 22:06:24;;;;;;;69.90;38.40;;;;;;;11.48;86.81;99026.09;1778653;81;20959;-44
2022/10/14 22:08:52;;;;;;;68.37;39.10;;;;;;;11.47;86.92;99033.12;1778756;81;20964;-41
2022/10/14 22:11:28;;;;;;;71.97;38.55;;;;;;;11.45;87.31;99031.05;1778832;80;21497;-46
2022/10/14 22:13:56;;;;;;;72.85;38.13;;;;;;;11.44;87.16;99025.88;1778836;80;21026;-45
2022/10/14 22:16:23;;;;;;;75.35;38.60;;;;;;;11.41;87.93;99024.78;1778831;81;20982;-45
2022/10/14 22:18:52;;;;;;;67.58;39.63;;;;;;;11.40;87.75;99011.23;1779188;81;21011;-39
2022/10/14 22:21:21;;;;;;;67.47;39.88;;;;;;;11.39;88.19;99013.47;1778768;81;21441;-40
2022/10/14 22:23:48;;;;;;;74.65;39.25;;;;;;;11.37;87.65;99014.91;1772602;80;21537;-39
2022/10/14 22:26:18;;;;;;;71.90;37.23;;;;;;;11.38;88.17;99025.80;1771929;81;21031;-41
2022/10/14 22:28:44;;;;;;;72.85;37.85;;;;;;;11.38;88.37;99028.43;1771742;81;21023;-42
2022/10/14 22:31:17;;;;;;;66.77;38.13;;;;;;;11.38;88.59;99029.75;1771725;81;20988;-40
2022/10/14 22:33:43;;;;;;;72.45;36.85;;;;;;;11.38;88.35;99023.64;1771871;81;21031;-44
2022/10/14 22:36:18;;;;;;;74.22;38.40;;;;;;;11.38;88.76;99019.22;1771982;80;21508;-46
2022/10/14 22:38:46;;;;;;;67.50;36.98;;;;;;;11.39;88.60;99022.23;1771849;81;20980;-44
2022/10/14 22:41:14;;;;;;;76.77;40.35;;;;;;;11.37;88.64;99022.81;1771764;81;21023;-43
2022/10/14 22:43:49;;;;;;;71.45;40.10;;;;;;;11.38;88.64;99016.59;1771714;81;21015;-45
2022/10/14 22:46:20;;;;;;;71.50;38.05;;;;;;;11.37;88.94;99015.36;1771840;81;20988;-41
2022/10/14 22:48:47;;;;;;;70.47;38.70;;;;;;;11.38;88.32;99024.48;1771797;81;21407;-43
2022/10/14 22:51:16;;;;;;;67.70;38.63;;;;;;;11.35;88.87;99024.70;1771836;81;20984;-44
2022/10/14 22:53:43;;;;;;;68.02;37.73;;;;;;;11.36;89.12;99023.73;1771698;81;20984;-39
2022/10/14 22:56:13;;;;;;;66.85;36.98;;;;;;;11.36;88.94;99025.53;1771808;81;21018;-43
2022/10/14 22:58:39;;;;;;;70.30;37.15;;;;;;;11.33;89.00;99020.84;1771753;81;20999;-44
2022/10/14 23:01:09;;;;;;;66.45;36.83;;;;;;;11.33;89.19;99017.34;1771631;81;21465;-44
2022/10/14 23:03:36;;;;;;;67.00;38.30;;;;;;;11.31;89.18;99016.15;1771528;81;21458;-46
2022/10/14 23:06:05;;;;;;;75.03;38.70;;;;;;;11.27;89.39;99016.42;1771936;81;20984;-47
2022/10/14 23:08:32;;;;;;;69.60;37.25;;;;;;;11.24;89.34;99017.47;1771674;81;21031;-45
2022/10/14 23:10:58;;;;;;;64.12;36.63;;;;;;;11.22;89.33;99016.69;1771830;81;20979;-44
2022/10/14 23:13:25;;;;;;;65.10;36.83;;;;;;;11.19;89.64;99018.22;1771945;81;21619;-45
2022/10/14 23:16:05;;;;;;;64.22;37.33;;;;;;;11.18;89.27;99019.63;1771905;81;21039;-43
2022/10/14 23:18:35;;;;;;;64.40;37.25;;;;;;;11.16;89.80;99017.56;1771644;81;20983;-48
2022/10/14 23:21:11;;;;;;;67.12;37.98;;;;;;;11.13;89.75;99015.95;1771663;81;21039;-42
2022/10/14 23:23:37;;;;;;;68.02;37.63;;;;;;;11.11;89.13;99007.31;1773778;80;21039;-44
2022/10/14 23:26:03;;;;;;;64.67;37.33;;;;;;;11.07;89.70;99014.55;1778768;81;20983;-43
2022/10/14 23:28:29;;;;;;;63.90;37.83;;;;;;;11.04;89.48;99002.92;1778833;80;20956;-41
2022/10/14 23:30:54;;;;;;;61.02;36.68;;;;;;;11.03;89.88;99011.73;1778813;81;21081;-40
2022/10/14 23:33:21;;;;;;;65.05;37.05;;;;;;;11.02;89.41;99007.41;1778818;81;21481;-43
2022/10/14 23:35:46;;;;;;;65.87;35.17;;;;;;;11.00;89.86;99004.02;1778768;81;20976;-47
2022/10/14 23:38:12;;;;;;;72.58;37.00;;;;;;;10.98;90.08;99003.28;1778880;80;20995;-45
2022/10/14 23:40:38;;;;;;;67.32;36.95;;;;;;;10.96;90.38;98999.90;1778706;81;20991;-41
2022/10/14 23:43:04;;;;;;;64.27;36.68;;;;;;;10.91;90.33;98993.63;1778849;81;21477;-41
2022/10/14 23:45:30;;;;;;;66.82;37.00;;;;;;;10.89;90.63;98995.95;1778811;81;21426;-41
2022/10/14 23:47:55;;;;;;;64.53;35.75;;;;;;;10.88;90.57;99008.75;1778850;80;21035;-46
2022/10/14 23:50:21;;;;;;;65.00;36.48;;;;;;;10.86;90.37;98998.31;1778733;80;21034;-41
2022/10/14 23:52:47;;;;;;;67.65;36.93;;;;;;;10.87;90.23;98999.15;1778795;80;20980;-44
2022/10/14 23:55:13;;;;;;;68.33;36.75;;;;;;;10.85;90.86;99003.19;1778811;80;21445;-44
2022/10/14 23:57:39;;;;;;;58.13;34.80;;;;;;;10.86;90.60;99003.58;1778832;81;21023;-40
